Portada
METAR-TAF:

METAR-TAF

Aeroports :

Fuzhou, Xina

latitud: 26-05N, longitud: 119-17E, altitud: 85 m

Observació

L'informe es va fer fa 32 minuts, a les 08:00 UTC
Vent 14 kt del Sud/Sud-Oest
Temperatura 30°C
Humitat 75%
Pressió 1000 hPa
Visibilitat 10 km o més
sense núvols per sota de 1500 mi sense presència de cumulonimbus.

METAR: ZSFZ 090800Z 21007MPS CAVOK 30/25 Q1000 NOSIG

Hora: 16:32 (08:32 UTC)

Pronòstic

L'informe es va fer fa 5 hores i 19 minuts, a les 03:13 UTC
Pronòstic vàlid del 09 a les 06 UTC al 10 a les 06 UTC
Vent 16 kt del Sud
Visibilitat: 4000 m
Núvols disperses a una alçada de 1500 ft
xàfecs de pluja
Temporalment
l' 09 a les 08 UTC al 09 a les 14 UTC
Núvols disperses a una alçada de 1300 ft
Cel ennuvolat a una alçada de 2000 ft
Núvols disperses a una alçada de 3000 ft, Cumulonimbus.
tempesta, pluja

TAF: ZSFZ 090313Z 0906/1006 19008MPS 4000 -SHRA SCT015 TX30/0906Z TN24/0918Z TEMPO 0908/0914 TSRA SCT013 BKN020 SCT030CB

Observacions i pronòstics meteorològics de més de 4000 aeroports (METAR i TAF).

Les estacions disponibles són els punts grocs i vermells al mapa.

Posi el ratolí al punt desitjat per veure el nom de l'estació.

Feu clic per veure les observacions i els pronòstics meteorològics.

Per canviar el mapa: feu clic els botons verds amb una creu de color negre per apropar; al botó verd amb un guió per allunyar la imatge; o en les fletxes verdes per a mapes adjacents.


METAR-TAF: